createdAt,value
2023-04-30T00:00:42.750Z,27.85
2023-04-30T00:03:09.519Z,30.75
2023-04-30T00:05:36.258Z,30.20
2023-04-30T00:08:04.043Z,29.38
2023-04-30T00:10:30.720Z,29.52
2023-04-30T00:12:57.321Z,29.13
2023-04-30T00:15:23.925Z,30.35
2023-04-30T00:17:50.607Z,29.10
2023-04-30T00:20:17.784Z,29.35
2023-04-30T00:22:44.370Z,28.83
2023-04-30T00:25:11.234Z,28.83
2023-04-30T00:27:40.125Z,28.90
2023-04-30T00:30:08.285Z,29.00
2023-04-30T00:32:35.514Z,28.95
2023-04-30T00:35:02.888Z,29.88
2023-04-30T00:37:29.572Z,27.27
2023-04-30T00:39:56.667Z,27.42
2023-04-30T00:42:24.014Z,27.65
2023-04-30T00:44:51.615Z,28.98
2023-04-30T00:47:18.487Z,28.73
2023-04-30T00:49:45.517Z,28.98
2023-04-30T00:52:12.864Z,28.88
2023-04-30T00:54:39.648Z,28.52
2023-04-30T00:57:09.422Z,28.63
2023-04-30T00:59:36.408Z,28.63
2023-04-30T01:02:03.473Z,29.58
2023-04-30T01:04:30.387Z,26.98
2023-04-30T01:06:57.112Z,27.45
2023-04-30T01:09:23.868Z,27.50
2023-04-30T01:12:13.600Z,28.55
2023-04-30T01:15:04.159Z,26.85
2023-04-30T01:17:41.651Z,27.95
2023-04-30T01:20:11.196Z,28.08
2023-04-30T01:23:01.978Z,27.50
2023-04-30T01:25:34.115Z,26.65
2023-04-30T01:28:16.867Z,28.42
2023-04-30T01:30:46.976Z,27.67
2023-04-30T01:33:14.111Z,25.83
2023-04-30T01:35:49.341Z,29.33
2023-04-30T01:38:46.726Z,27.20
2023-04-30T01:41:30.022Z,28.10
2023-04-30T01:44:24.052Z,28.42
2023-04-30T01:47:02.700Z,29.48
2023-04-30T01:49:37.904Z,27.85
2023-04-30T01:52:17.902Z,27.17
2023-04-30T01:55:05.569Z,27.40
2023-04-30T01:57:42.605Z,28.42
2023-04-30T02:00:11.522Z,28.77
2023-04-30T02:02:41.631Z,27.35
2023-04-30T02:05:08.677Z,25.75
2023-04-30T02:07:44.106Z,27.20
2023-04-30T02:10:14.501Z,26.67
2023-04-30T02:12:41.510Z,27.25
2023-04-30T02:15:08.896Z,25.30
2023-04-30T02:17:35.955Z,26.38
2023-04-30T02:20:03.347Z,26.92
2023-04-30T02:22:30.372Z,26.45
2023-04-30T02:24:57.313Z,27.58
2023-04-30T02:27:25.965Z,29.17
2023-04-30T02:29:53.403Z,28.10
2023-04-30T02:32:20.747Z,29.30
2023-04-30T02:34:47.801Z,28.50
2023-04-30T02:37:14.627Z,30.85
2023-04-30T02:39:41.465Z,28.65
2023-04-30T02:42:08.224Z,28.55
2023-04-30T02:44:35.434Z,29.27
2023-04-30T02:47:02.728Z,29.83
2023-04-30T02:49:29.960Z,31.88
2023-04-30T02:51:56.544Z,30.27
2023-04-30T02:54:23.251Z,30.67
2023-04-30T02:56:49.886Z,30.15
2023-04-30T02:59:16.588Z,31.20
2023-04-30T03:01:43.261Z,30.67
2023-04-30T03:04:10.058Z,31.52
2023-04-30T03:06:37.083Z,28.90
2023-04-30T03:09:04.028Z,30.30
2023-04-30T03:11:30.735Z,28.48
2023-04-30T03:13:57.712Z,29.70
2023-04-30T03:16:24.395Z,30.95
2023-04-30T03:18:51.103Z,29.55
2023-04-30T03:21:18.809Z,28.45
2023-04-30T03:23:46.109Z,30.30
2023-04-30T03:26:12.697Z,29.85
2023-04-30T03:28:39.325Z,31.33
2023-04-30T03:31:06.280Z,30.33
2023-04-30T03:33:33.227Z,33.20
2023-04-30T03:36:00.002Z,30.92
2023-04-30T03:38:26.734Z,31.00
2023-04-30T03:40:53.346Z,30.15
2023-04-30T03:43:20.200Z,28.95
2023-04-30T03:45:46.932Z,29.95
2023-04-30T03:48:13.683Z,32.53
2023-04-30T03:50:40.812Z,33.42
2023-04-30T03:53:07.441Z,31.85
2023-04-30T03:55:35.504Z,30.73
2023-04-30T03:58:02.429Z,30.33
2023-04-30T04:00:29.195Z,31.92
2023-04-30T04:02:58.155Z,30.35
2023-04-30T04:05:25.124Z,29.63
2023-04-30T04:07:51.793Z,29.27
2023-04-30T04:10:18.800Z,28.42
2023-04-30T04:12:46.444Z,32.72
2023-04-30T04:15:13.196Z,30.77
2023-04-30T04:17:40.079Z,31.95
2023-04-30T04:20:08.198Z,31.15
2023-04-30T04:22:36.148Z,31.13
2023-04-30T04:25:03.049Z,33.03
2023-04-30T04:27:31.802Z,30.20
2023-04-30T04:29:58.427Z,31.85
2023-04-30T04:32:25.761Z,31.67
2023-04-30T04:34:54.212Z,31.67
2023-04-30T04:37:20.917Z,32.70
2023-04-30T04:39:47.690Z,32.85
2023-04-30T04:42:20.416Z,32.53
2023-04-30T04:44:47.518Z,33.03
2023-04-30T04:47:14.147Z,41.65
2023-04-30T04:49:41.292Z,33.13
2023-04-30T04:52:09.229Z,31.50
2023-04-30T04:54:35.827Z,34.25
2023-04-30T04:57:02.951Z,38.20
2023-04-30T04:59:29.961Z,35.78
2023-04-30T05:01:57.152Z,35.03
2023-04-30T05:04:24.072Z,35.00
2023-04-30T05:06:50.762Z,36.05
2023-04-30T05:09:17.628Z,38.25
2023-04-30T05:11:46.062Z,38.05
2023-04-30T05:14:12.744Z,37.45
2023-04-30T05:16:39.695Z,34.92
2023-04-30T05:19:07.027Z,38.33
2023-04-30T05:21:33.676Z,34.83
2023-04-30T05:24:00.521Z,34.35
2023-04-30T05:26:27.157Z,35.35
2023-04-30T05:28:53.808Z,33.88
2023-04-30T05:31:20.999Z,35.97
2023-04-30T05:33:48.182Z,36.15
2023-04-30T05:36:14.831Z,35.60
2023-04-30T05:38:41.831Z,34.38
2023-04-30T05:41:13.760Z,37.30
2023-04-30T05:43:40.607Z,34.15
2023-04-30T05:46:07.252Z,37.05
2023-04-30T05:48:33.986Z,35.72
2023-04-30T05:51:00.801Z,33.83
2023-04-30T05:53:27.606Z,32.58
2023-04-30T05:55:54.284Z,31.73
2023-04-30T05:58:20.930Z,30.92
2023-04-30T06:00:50.739Z,21.98
2023-04-30T06:03:18.304Z,20.45
2023-04-30T06:05:45.496Z,21.27
2023-04-30T06:08:12.230Z,19.45
2023-04-30T06:10:39.227Z,11.68
2023-04-30T06:13:06.360Z,9.75
2023-04-30T06:15:33.409Z,9.70
2023-04-30T06:18:00.124Z,9.38
2023-04-30T06:20:29.892Z,10.43
2023-04-30T06:22:56.551Z,13.30
2023-04-30T06:25:23.232Z,16.35
2023-04-30T06:27:51.548Z,18.88
2023-04-30T06:30:18.184Z,21.30
2023-04-30T06:32:44.820Z,21.50
2023-04-30T06:35:11.582Z,22.17
2023-04-30T06:37:38.330Z,22.52
2023-04-30T06:40:06.402Z,23.50
2023-04-30T06:42:36.295Z,22.80
2023-04-30T06:45:03.797Z,22.90
2023-04-30T06:47:34.552Z,25.27
2023-04-30T06:50:01.893Z,25.50
2023-04-30T06:52:28.904Z,26.77
2023-04-30T06:54:55.525Z,26.67
2023-04-30T06:57:22.341Z,26.05
2023-04-30T06:59:49.023Z,25.55
2023-04-30T07:02:16.467Z,25.90
2023-04-30T07:04:43.125Z,25.85
2023-04-30T07:07:10.006Z,26.10
2023-04-30T07:09:36.824Z,26.05
2023-04-30T07:12:03.777Z,26.55
2023-04-30T07:14:30.407Z,27.50
2023-04-30T07:16:57.063Z,27.27
2023-04-30T07:19:25.257Z,29.30
2023-04-30T07:21:51.890Z,28.83
2023-04-30T07:24:18.471Z,27.55
2023-04-30T07:26:45.420Z,28.75
2023-04-30T07:29:12.068Z,28.73
2023-04-30T07:31:38.715Z,29.63
2023-04-30T07:34:05.383Z,29.38
2023-04-30T07:36:32.447Z,29.60
2023-04-30T07:38:59.064Z,30.35
2023-04-30T07:41:26.204Z,30.00
2023-04-30T07:43:53.111Z,34.17
2023-04-30T07:46:19.798Z,31.80
2023-04-30T07:48:46.499Z,32.30
2023-04-30T07:51:13.092Z,30.48
2023-04-30T07:53:39.710Z,30.92
2023-04-30T07:56:07.266Z,33.03
2023-04-30T07:58:34.264Z,31.05
2023-04-30T08:01:00.940Z,33.40
2023-04-30T08:03:27.739Z,46.90
2023-04-30T08:05:54.885Z,32.28
2023-04-30T08:08:21.608Z,40.17
2023-04-30T08:10:48.204Z,49.60
2023-04-30T08:13:15.386Z,61.58
2023-04-30T08:15:42.341Z,35.03
2023-04-30T08:18:09.697Z,31.65
2023-04-30T08:20:38.021Z,31.88
2023-04-30T08:23:05.726Z,43.70
2023-04-30T08:25:32.779Z,32.22
2023-04-30T08:27:59.654Z,30.33
2023-04-30T08:30:26.397Z,31.10
2023-04-30T08:32:55.331Z,31.92
2023-04-30T08:35:23.519Z,31.38
2023-04-30T08:37:50.374Z,31.33
2023-04-30T08:40:17.372Z,32.10
2023-04-30T08:42:49.620Z,30.45
2023-04-30T08:45:16.456Z,32.17
2023-04-30T08:47:44.769Z,33.53
2023-04-30T08:50:11.873Z,32.78
2023-04-30T08:52:40.120Z,33.00
2023-04-30T08:55:11.129Z,33.25
2023-04-30T08:57:38.602Z,31.42
2023-04-30T09:00:06.936Z,34.75
2023-04-30T09:02:34.733Z,33.58
2023-04-30T09:05:01.631Z,32.83
2023-04-30T09:07:33.564Z,35.08
2023-04-30T09:10:00.716Z,35.33
2023-04-30T09:12:27.432Z,34.95
2023-04-30T09:15:05.391Z,36.90
2023-04-30T09:17:33.163Z,37.00
2023-04-30T09:20:13.953Z,34.50
2023-04-30T09:22:42.231Z,37.55
2023-04-30T09:25:11.136Z,36.25
2023-04-30T09:27:37.826Z,36.08
2023-04-30T09:30:05.834Z,37.92
2023-04-30T09:32:32.579Z,37.42
2023-04-30T09:34:59.436Z,37.05
2023-04-30T09:37:39.356Z,37.15
2023-04-30T09:40:06.709Z,36.42
2023-04-30T09:42:33.384Z,38.22
2023-04-30T09:45:00.032Z,35.25
2023-04-30T09:47:31.787Z,39.75
2023-04-30T09:50:00.090Z,37.78
2023-04-30T09:52:26.930Z,36.42
2023-04-30T09:54:53.998Z,37.78
2023-04-30T09:57:23.850Z,29.88
2023-04-30T09:59:53.171Z,34.85
2023-04-30T10:02:23.257Z,31.50
2023-04-30T10:04:57.904Z,31.05
2023-04-30T10:07:29.922Z,31.63
2023-04-30T10:10:07.359Z,32.83
2023-04-30T10:12:56.295Z,39.40
2023-04-30T10:15:28.782Z,37.75
2023-04-30T10:18:02.679Z,34.72
2023-04-30T10:20:31.381Z,38.97
2023-04-30T10:22:58.831Z,39.17
2023-04-30T10:25:26.943Z,35.97
2023-04-30T10:27:53.907Z,38.35
2023-04-30T10:30:22.182Z,39.08
2023-04-30T10:33:20.808Z,37.53
2023-04-30T10:35:47.443Z,37.03
2023-04-30T10:38:25.293Z,38.40
2023-04-30T10:40:57.154Z,38.45
2023-04-30T10:43:29.709Z,40.30
2023-04-30T10:45:58.596Z,38.90
2023-04-30T10:48:26.763Z,38.13
2023-04-30T10:50:56.449Z,39.08
2023-04-30T10:53:25.939Z,39.85
2023-04-30T10:56:06.785Z,39.63
2023-04-30T10:58:38.785Z,38.17
2023-04-30T11:01:10.697Z,37.42
2023-04-30T11:03:38.607Z,37.13
2023-04-30T11:06:19.833Z,38.40
2023-04-30T11:08:47.174Z,39.15
2023-04-30T11:11:23.700Z,38.70
2023-04-30T11:14:01.003Z,40.10
2023-04-30T11:16:31.651Z,40.08
2023-04-30T11:19:11.634Z,40.22
2023-04-30T11:21:42.495Z,39.90
2023-04-30T11:24:09.137Z,37.85
2023-04-30T11:27:05.778Z,40.22
2023-04-30T11:29:32.836Z,38.78
2023-04-30T11:32:04.910Z,38.22
2023-04-30T11:34:31.615Z,40.90
2023-04-30T11:37:00.888Z,41.72
2023-04-30T11:39:29.598Z,41.00
2023-04-30T11:41:56.259Z,41.15
2023-04-30T11:44:27.712Z,39.33
2023-04-30T11:46:54.830Z,38.70
2023-04-30T11:49:21.572Z,40.75
2023-04-30T11:51:50.266Z,37.00
2023-04-30T11:54:18.355Z,38.97
2023-04-30T11:56:49.110Z,40.13
2023-04-30T11:59:17.315Z,40.42
2023-04-30T12:01:44.103Z,41.17
2023-04-30T12:04:10.983Z,40.95
2023-04-30T12:06:37.931Z,40.45
2023-04-30T12:09:08.872Z,39.38
2023-04-30T12:11:35.848Z,42.67
2023-04-30T12:14:04.028Z,40.95
2023-04-30T12:16:50.865Z,39.72
2023-04-30T12:19:19.436Z,40.90
2023-04-30T12:21:48.304Z,40.22
2023-04-30T12:24:16.983Z,42.42
2023-04-30T12:26:44.221Z,42.25
2023-04-30T12:29:15.822Z,42.13
2023-04-30T12:31:43.479Z,42.17
2023-04-30T12:34:14.542Z,41.15
2023-04-30T12:36:44.840Z,41.45
2023-04-30T12:39:12.752Z,41.10
2023-04-30T12:41:44.968Z,41.15
2023-04-30T12:44:25.438Z,40.80
2023-04-30T12:46:56.165Z,40.92
2023-04-30T12:49:27.363Z,39.88
2023-04-30T12:52:04.032Z,39.08
2023-04-30T12:54:32.579Z,38.05
2023-04-30T12:57:03.713Z,38.88
2023-04-30T12:59:32.192Z,40.72
2023-04-30T13:02:09.041Z,40.22
2023-04-30T13:04:36.438Z,40.15
2023-04-30T13:07:04.401Z,37.70
2023-04-30T13:09:41.015Z,38.05
2023-04-30T13:12:08.264Z,36.75
2023-04-30T13:14:35.554Z,37.13
2023-04-30T13:17:05.579Z,38.50
2023-04-30T13:19:32.421Z,38.10
2023-04-30T13:22:00.210Z,37.47
2023-04-30T13:24:26.913Z,37.13
2023-04-30T13:26:53.848Z,38.30
2023-04-30T13:29:20.917Z,37.55
2023-04-30T13:31:48.998Z,37.30
2023-04-30T13:34:15.912Z,39.63
2023-04-30T13:36:42.659Z,40.03
2023-04-30T13:39:09.236Z,40.45
2023-04-30T13:41:35.915Z,40.50
2023-04-30T13:44:02.895Z,40.83
2023-04-30T13:46:30.467Z,39.17
2023-04-30T13:48:57.154Z,38.75
2023-04-30T13:51:23.813Z,39.97
2023-04-30T13:53:50.517Z,40.53
2023-04-30T13:56:17.169Z,41.22
2023-04-30T13:58:44.015Z,40.83
2023-04-30T14:01:10.759Z,37.60
2023-04-30T14:03:37.761Z,41.92
2023-04-30T14:06:05.748Z,38.95
2023-04-30T14:08:33.576Z,41.03
2023-04-30T14:11:00.285Z,40.55
2023-04-30T14:13:26.883Z,40.50
2023-04-30T14:15:54.588Z,38.13
2023-04-30T14:18:22.711Z,40.20
2023-04-30T14:20:49.955Z,41.38
2023-04-30T14:23:16.574Z,41.22
2023-04-30T14:25:44.130Z,43.00
2023-04-30T14:28:11.704Z,43.88
2023-04-30T14:30:38.363Z,42.30
2023-04-30T14:33:05.426Z,43.70
2023-04-30T14:35:33.405Z,44.08
2023-04-30T14:37:59.992Z,43.40
2023-04-30T14:40:26.647Z,43.75
2023-04-30T14:42:53.258Z,42.85
2023-04-30T14:45:19.944Z,46.05
2023-04-30T14:47:46.728Z,47.83
2023-04-30T14:50:13.923Z,45.05
2023-04-30T14:52:41.968Z,44.83
2023-04-30T14:55:09.040Z,45.03
2023-04-30T14:57:36.280Z,45.58
2023-04-30T15:00:03.224Z,46.65
2023-04-30T15:02:30.094Z,45.35
2023-04-30T15:04:57.467Z,42.38
2023-04-30T15:07:24.125Z,43.42
2023-04-30T15:09:51.913Z,43.47
2023-04-30T15:12:18.504Z,44.22
2023-04-30T15:14:45.142Z,42.67
2023-04-30T15:17:11.853Z,44.63
2023-04-30T15:19:38.531Z,42.47
2023-04-30T15:22:06.772Z,42.83
2023-04-30T15:24:34.196Z,45.30
2023-04-30T15:27:00.812Z,46.85
2023-04-30T15:29:27.516Z,45.45
2023-04-30T15:31:54.477Z,44.42
2023-04-30T15:34:22.420Z,45.78
2023-04-30T15:36:52.144Z,46.10
2023-04-30T15:39:19.068Z,45.17
2023-04-30T15:41:45.799Z,44.15
2023-04-30T15:44:12.390Z,44.30
2023-04-30T15:46:39.054Z,45.03
2023-04-30T15:49:05.718Z,45.00
2023-04-30T15:51:32.958Z,44.13
2023-04-30T15:53:59.705Z,43.25
2023-04-30T15:56:26.632Z,42.38
2023-04-30T15:58:53.933Z,43.53
2023-04-30T16:01:20.969Z,45.15
2023-04-30T16:03:48.087Z,42.47
2023-04-30T16:06:16.073Z,41.42
2023-04-30T16:08:43.962Z,43.92
2023-04-30T16:11:11.564Z,44.17
2023-04-30T16:13:38.238Z,44.15
2023-04-30T16:16:05.474Z,42.95
2023-04-30T16:18:32.161Z,41.33
2023-04-30T16:20:58.872Z,43.08
2023-04-30T16:23:25.494Z,41.78
2023-04-30T16:25:52.085Z,42.55
2023-04-30T16:28:18.735Z,43.78
2023-04-30T16:30:45.464Z,43.38
2023-04-30T16:33:12.051Z,42.67
2023-04-30T16:35:38.700Z,41.45
2023-04-30T16:38:05.485Z,43.20
2023-04-30T16:40:33.491Z,42.25
2023-04-30T16:43:00.518Z,43.55
2023-04-30T16:45:27.289Z,42.45
2023-04-30T16:47:53.958Z,41.67
2023-04-30T16:50:20.794Z,42.63
2023-04-30T16:52:47.858Z,41.47
2023-04-30T16:55:14.472Z,40.15
2023-04-30T16:57:41.529Z,42.92
2023-04-30T17:00:11.317Z,41.28
2023-04-30T17:02:39.768Z,45.13
2023-04-30T17:05:07.267Z,43.97
2023-04-30T17:07:33.872Z,42.53
2023-04-30T17:10:00.626Z,42.15
2023-04-30T17:12:27.478Z,43.30
2023-04-30T17:14:54.145Z,45.45
2023-04-30T17:17:20.793Z,42.50
2023-04-30T17:19:47.408Z,42.33
2023-04-30T17:22:15.969Z,43.65
2023-04-30T17:24:42.613Z,51.58
2023-04-30T17:27:09.911Z,50.55
2023-04-30T17:29:36.497Z,52.40
2023-04-30T17:32:04.334Z,52.85
2023-04-30T17:34:31.269Z,38.97
2023-04-30T17:36:57.985Z,48.15
2023-04-30T17:39:25.141Z,58.85
2023-04-30T17:41:51.777Z,57.47
2023-04-30T17:44:19.283Z,57.13
2023-04-30T17:46:46.126Z,58.25
2023-04-30T17:49:12.948Z,62.30
2023-04-30T17:51:39.574Z,59.13
2023-04-30T17:54:06.236Z,58.58
2023-04-30T17:56:33.405Z,56.55
2023-04-30T17:59:00.560Z,41.30
2023-04-30T18:01:27.478Z,39.45
2023-04-30T18:03:54.434Z,42.15
2023-04-30T18:06:21.284Z,39.97
2023-04-30T18:08:48.018Z,40.65
2023-04-30T18:11:14.672Z,40.67
2023-04-30T18:13:41.362Z,36.60
2023-04-30T18:16:08.359Z,36.85
2023-04-30T18:18:35.369Z,38.00
2023-04-30T18:21:03.669Z,37.45
2023-04-30T18:23:30.380Z,38.78
2023-04-30T18:25:57.328Z,42.97
2023-04-30T18:28:24.573Z,39.22
2023-04-30T18:30:51.512Z,39.45
2023-04-30T18:33:18.222Z,40.03
2023-04-30T18:35:49.652Z,40.30
2023-04-30T18:38:16.335Z,24.42
2023-04-30T18:40:43.435Z,24.38
2023-04-30T18:43:10.118Z,24.67
2023-04-30T18:45:36.728Z,24.70
2023-04-30T18:48:04.125Z,25.48
2023-04-30T18:50:30.782Z,26.50
2023-04-30T18:52:57.375Z,25.90
2023-04-30T18:55:24.040Z,25.67
2023-04-30T18:57:50.727Z,25.65
2023-04-30T19:00:17.348Z,25.60
2023-04-30T19:02:44.619Z,25.40
2023-04-30T19:05:11.271Z,24.80
2023-04-30T19:07:37.914Z,40.20
2023-04-30T19:10:05.332Z,25.40
2023-04-30T19:12:32.213Z,24.75
2023-04-30T19:14:58.949Z,25.50
2023-04-30T19:17:25.650Z,25.40
2023-04-30T19:19:52.961Z,26.55
2023-04-30T19:22:19.950Z,26.48
2023-04-30T19:24:46.559Z,25.10
2023-04-30T19:27:13.176Z,25.90
2023-04-30T19:29:39.906Z,28.70
2023-04-30T19:32:06.881Z,24.83
2023-04-30T19:34:34.380Z,25.60
2023-04-30T19:37:00.996Z,24.70
2023-04-30T19:39:31.586Z,25.13
2023-04-30T19:41:58.791Z,24.98
2023-04-30T19:44:25.769Z,24.83
2023-04-30T19:46:52.436Z,24.67
2023-04-30T19:49:19.062Z,24.80
2023-04-30T19:51:45.748Z,24.42
2023-04-30T19:54:14.081Z,24.17
2023-04-30T19:56:44.381Z,24.70
2023-04-30T19:59:11.178Z,25.15
2023-04-30T20:01:38.325Z,25.52
2023-04-30T20:04:05.698Z,25.38
2023-04-30T20:06:32.824Z,25.13
2023-04-30T20:09:00.645Z,25.08
2023-04-30T20:11:27.764Z,24.95
2023-04-30T20:13:55.201Z,24.98
2023-04-30T20:16:22.104Z,25.20
2023-04-30T20:18:48.961Z,24.67
2023-04-30T20:21:17.072Z,25.80
2023-04-30T20:23:45.957Z,25.10
2023-04-30T20:26:13.092Z,24.73
2023-04-30T20:28:39.775Z,25.27
2023-04-30T20:31:07.222Z,24.45
2023-04-30T20:33:33.972Z,24.45
2023-04-30T20:36:02.387Z,25.45
2023-04-30T20:38:29.625Z,24.95
2023-04-30T20:40:58.800Z,24.92
2023-04-30T20:43:25.487Z,24.98
2023-04-30T20:45:52.169Z,30.27
2023-04-30T20:48:18.920Z,30.38
2023-04-30T20:50:45.942Z,29.70
2023-04-30T20:53:14.058Z,30.30
2023-04-30T20:55:41.059Z,28.13
2023-04-30T20:58:08.893Z,29.95
2023-04-30T21:00:36.074Z,27.98
2023-04-30T21:03:02.917Z,29.25
2023-04-30T21:05:30.040Z,27.55
2023-04-30T21:08:00.938Z,25.48
2023-04-30T21:10:34.914Z,26.77
2023-04-30T21:13:03.404Z,26.90
2023-04-30T21:15:30.708Z,28.45
2023-04-30T21:17:58.328Z,26.95
2023-04-30T21:20:25.685Z,28.00
2023-04-30T21:22:54.831Z,27.38
2023-04-30T21:25:21.955Z,27.00
2023-04-30T21:27:48.861Z,25.30
2023-04-30T21:30:16.976Z,31.58
2023-04-30T21:32:49.545Z,33.38
2023-04-30T21:35:16.345Z,32.28
2023-04-30T21:37:43.183Z,28.95
2023-04-30T21:40:10.650Z,31.13
2023-04-30T21:42:37.349Z,34.15
2023-04-30T21:45:04.701Z,34.53
2023-04-30T21:47:31.635Z,34.88
2023-04-30T21:49:59.066Z,28.10
2023-04-30T21:52:26.016Z,54.42
2023-04-30T21:54:52.909Z,35.47
2023-04-30T21:57:19.628Z,30.98
2023-04-30T21:59:46.340Z,28.83
2023-04-30T22:04:47.434Z,29.02
2023-04-30T22:07:14.169Z,28.17
2023-04-30T22:09:40.954Z,27.15
2023-04-30T22:12:09.060Z,27.17
2023-04-30T22:14:35.761Z,25.02
2023-04-30T22:17:02.418Z,23.98
2023-04-30T22:19:29.085Z,25.55
2023-04-30T22:21:55.792Z,24.80
2023-04-30T22:24:22.403Z,23.90
2023-04-30T22:26:49.518Z,23.63
2023-04-30T22:29:16.279Z,23.30
2023-04-30T22:31:43.006Z,23.15
2023-04-30T22:34:09.859Z,23.30
2023-04-30T22:36:36.913Z,24.02
2023-04-30T22:39:03.961Z,23.95
2023-04-30T22:41:30.748Z,23.77
2023-04-30T22:43:57.345Z,23.60
2023-04-30T22:46:24.081Z,25.65
2023-04-30T22:48:50.891Z,28.02
2023-04-30T22:51:18.036Z,30.48
2023-04-30T22:53:44.899Z,30.67
2023-04-30T22:56:11.597Z,29.50
2023-04-30T22:58:38.175Z,28.13
2023-04-30T23:01:05.146Z,27.45
2023-04-30T23:03:31.832Z,28.83
2023-04-30T23:06:01.797Z,28.95
2023-04-30T23:08:28.500Z,27.17
2023-04-30T23:10:55.533Z,26.75
2023-04-30T23:13:22.722Z,25.80
2023-04-30T23:15:49.560Z,25.52
2023-04-30T23:18:17.373Z,24.88
2023-04-30T23:20:44.013Z,23.80
2023-04-30T23:23:10.600Z,24.23
2023-04-30T23:25:37.833Z,24.13
2023-04-30T23:28:04.867Z,23.63
2023-04-30T23:30:32.489Z,23.55
2023-04-30T23:32:59.116Z,23.65
2023-04-30T23:35:25.827Z,24.67
2023-04-30T23:37:52.406Z,25.25
2023-04-30T23:40:19.867Z,26.50
2023-04-30T23:42:46.486Z,25.25
2023-04-30T23:45:13.145Z,24.70
2023-04-30T23:47:39.847Z,25.10
2023-04-30T23:50:07.156Z,24.77
2023-04-30T23:52:35.627Z,25.83
2023-04-30T23:55:02.873Z,22.98
2023-04-30T23:57:29.549Z,23.27
2023-04-30T23:59:56.580Z,23.08
